Time;durP1;ratioP1;P1;durP2;ratioP2;P2;SDS_P1;SDS_P2;PMS_P1;PMS_P2;Temp;Humidity;BMP_temperature;BMP_pressure;BME280_temperature;BME280_humidity;BME280_pressure;Samples;Min_cycle;Max_cycle;Signal;HPM_P1;HPM_P2
2022/01/15 00:01:16;;;;;;;10.77;6.03;;;9.30;99.90;;;;;;5078885;28;20494;-80
2022/01/15 00:03:42;;;;;;;36.60;10.00;;;9.40;99.90;;;;;;5095463;28;20044;-80
2022/01/15 00:06:08;;;;;;;21.35;7.95;;;9.40;99.90;;;;;;5078858;28;20094;-81
2022/01/15 00:08:34;;;;;;;14.60;7.13;;;9.40;99.90;;;;;;5095414;28;20114;-81
2022/01/15 00:10:59;;;;;;;12.07;6.63;;;9.40;99.90;;;;;;5095238;28;20091;-81
2022/01/15 00:13:30;;;;;;;11.07;6.38;;;9.30;99.90;;;;;;5095240;28;20044;-80
2022/01/15 00:16:43;;;;;;;9.65;5.45;;;9.40;99.90;;;;;;5095856;28;20093;-81
2022/01/15 00:19:04;;;;;;;21.65;8.15;;;9.40;99.90;;;;;;5093075;28;20044;-81
2022/01/15 00:21:30;;;;;;;56.70;11.57;;;9.40;99.90;;;;;;5095639;28;20198;-80
2022/01/15 00:23:55;;;;;;;16.73;8.30;;;9.40;99.90;;;;;;5078554;28;20548;-81
2022/01/15 00:26:21;;;;;;;14.73;8.15;;;9.30;99.90;;;;;;5095445;28;20066;-81
2022/01/15 00:28:47;;;;;;;18.38;8.07;;;9.30;99.90;;;;;;5094978;28;20044;-81
2022/01/15 00:31:13;;;;;;;17.75;7.75;;;9.30;99.90;;;;;;5078128;28;20044;-81
2022/01/15 00:33:39;;;;;;;37.83;10.80;;;9.40;99.90;;;;;;5095073;28;20048;-81
2022/01/15 00:36:05;;;;;;;24.95;9.27;;;9.40;99.90;;;;;;5112245;28;20052;-81
2022/01/15 00:38:30;;;;;;;15.93;8.35;;;9.40;99.90;;;;;;5078340;28;20056;-81
2022/01/15 00:40:56;;;;;;;14.65;8.05;;;9.50;99.90;;;;;;5094385;28;20048;-81
2022/01/15 00:43:22;;;;;;;14.43;7.80;;;9.40;99.90;;;;;;5078124;28;20112;-81
2022/01/15 00:45:47;;;;;;;17.98;8.27;;;9.40;99.90;;;;;;5077954;28;20044;-80
2022/01/15 00:48:14;;;;;;;14.95;7.70;;;9.40;99.90;;;;;;5094864;28;20054;-81
2022/01/15 00:50:44;;;;;;;16.70;8.55;;;9.40;99.90;;;;;;5078094;28;20044;-81
2022/01/15 00:53:10;;;;;;;14.30;7.53;;;9.50;99.90;;;;;;5078124;28;20048;-81
2022/01/15 00:55:36;;;;;;;14.52;7.70;;;9.40;99.90;;;;;;5094210;28;20483;-81
2022/01/15 00:58:02;;;;;;;12.65;7.18;;;9.50;99.90;;;;;;5094882;28;20079;-81
2022/01/15 01:00:28;;;;;;;14.30;7.75;;;9.50;99.90;;;;;;5077933;28;20051;-81
2022/01/15 01:02:53;;;;;;;11.70;7.03;;;9.50;99.90;;;;;;5095171;28;20040;-81
2022/01/15 01:05:20;;;;;;;19.35;8.95;;;9.50;99.90;;;;;;5094301;28;20047;-81
2022/01/15 01:07:46;;;;;;;13.82;7.35;;;9.50;99.90;;;;;;5094015;28;20080;-81
2022/01/15 01:23:06;;;;;;;14.20;7.65;;;9.60;99.90;;;;;;5094222;28;20091;-80
2022/01/15 01:25:38;;;;;;;13.50;7.30;;;9.60;99.90;;;;;;5094105;28;20161;-81
2022/01/15 01:28:09;;;;;;;13.43;7.05;;;9.60;99.90;;;;;;5094006;28;20051;-81
2022/01/15 01:30:46;;;;;;;13.98;7.10;;;9.60;99.90;;;;;;5077171;28;20562;-81
2022/01/15 01:33:29;;;;;;;12.25;6.85;;;9.60;99.90;;;;;;5094459;28;20110;-80
2022/01/15 01:38:41;;;;;;;18.15;7.90;;;9.50;99.90;;;;;;5094477;28;20055;-81
2022/01/15 01:41:13;;;;;;;21.52;7.40;;;9.50;99.90;;;;;;5076771;28;20056;-81
2022/01/15 01:43:44;;;;;;;13.25;6.25;;;9.50;99.90;;;;;;5078005;28;20039;-81
2022/01/15 01:48:36;;;;;;;16.65;6.18;;;9.30;99.90;;;;;;5093135;28;20193;-81
2022/01/15 01:51:03;;;;;;;12.88;5.80;;;9.30;99.90;;;;;;5093747;28;20432;-81
2022/01/15 01:53:29;;;;;;;13.40;5.72;;;9.30;99.90;;;;;;5076302;28;20384;-80
2022/01/15 01:55:54;;;;;;;17.90;6.43;;;9.40;99.90;;;;;;5094000;28;20059;-81
2022/01/15 01:58:20;;;;;;;15.00;6.55;;;9.40;99.90;;;;;;5093491;28;20487;-81
2022/01/15 02:00:46;;;;;;;11.60;6.28;;;9.40;99.90;;;;;;5127883;27;20051;-81
2022/01/15 02:03:11;;;;;;;15.57;6.88;;;9.30;99.90;;;;;;5093459;28;20085;-80
2022/01/15 02:05:39;;;;;;;11.60;6.40;;;9.20;99.90;;;;;;5093528;28;20048;-81
2022/01/15 02:08:05;;;;;;;12.00;5.65;;;9.30;99.90;;;;;;5127402;27;20453;-81
2022/01/15 02:10:32;;;;;;;11.38;5.35;;;9.30;99.90;;;;;;5076521;28;20048;-81
2022/01/15 02:13:00;;;;;;;10.93;5.10;;;9.30;99.90;;;;;;5093565;28;20455;-80
2022/01/15 02:15:27;;;;;;;10.65;4.97;;;9.30;99.90;;;;;;5093291;28;20101;-81
2022/01/15 02:17:54;;;;;;;14.23;6.40;;;9.30;99.90;;;;;;5075809;28;20048;-81
2022/01/15 02:25:57;;;;;;;8.88;4.40;;;9.40;99.90;;;;;;5093327;28;20067;-80
2022/01/15 02:28:37;;;;;;;7.00;3.78;;;9.30;99.90;;;;;;5093011;28;20093;-81
2022/01/15 02:31:06;;;;;;;10.10;3.90;;;9.30;99.90;;;;;;5093748;28;20123;-80
2022/01/15 02:33:31;;;;;;;11.48;4.43;;;9.30;99.90;;;;;;5076541;28;20486;-81
2022/01/15 02:35:58;;;;;;;7.95;3.25;;;9.30;99.90;;;;;;5076432;28;20048;-81
2022/01/15 02:38:25;;;;;;;12.98;3.60;;;9.30;99.90;;;;;;5093229;28;20044;-81
2022/01/15 02:40:51;;;;;;;7.00;2.90;;;9.30;99.90;;;;;;5093052;28;20479;-81
2022/01/15 02:43:19;;;;;;;6.15;3.10;;;9.30;99.90;;;;;;5093341;28;20051;-81
2022/01/15 02:46:00;;;;;;;4.80;2.53;;;9.30;99.90;;;;;;5093263;28;20122;-81
2022/01/15 02:48:28;;;;;;;3.90;2.10;;;9.30;99.90;;;;;;5092871;28;20044;-81
2022/01/15 02:50:55;;;;;;;6.47;2.30;;;9.30;99.90;;;;;;5093370;28;20108;-81
2022/01/15 02:53:21;;;;;;;4.72;2.08;;;9.30;99.90;;;;;;5076091;28;20051;-80
2022/01/15 02:55:50;;;;;;;3.67;2.05;;;9.30;99.90;;;;;;5093108;28;20052;-81
2022/01/15 02:58:18;;;;;;;3.92;2.00;;;9.20;99.90;;;;;;5092941;28;20051;-81
2022/01/15 03:00:44;;;;;;;3.33;1.80;;;9.30;99.90;;;;;;5076089;28;20059;-81
2022/01/15 03:03:10;;;;;;;4.90;2.33;;;9.30;99.90;;;;;;5092780;28;20047;-81
2022/01/15 03:05:36;;;;;;;2.72;1.58;;;9.20;99.90;;;;;;5093410;28;20047;-80
2022/01/15 03:08:02;;;;;;;3.78;2.00;;;9.10;99.90;;;;;;5092896;28;20036;-81
2022/01/15 03:10:29;;;;;;;3.75;2.00;;;9.10;99.90;;;;;;5092479;28;20055;-81
2022/01/15 03:12:56;;;;;;;4.63;2.33;;;9.00;99.90;;;;;;5093186;28;20132;-81
2022/01/15 03:15:22;;;;;;;5.22;2.63;;;9.10;99.90;;;;;;5092772;28;20059;-81
2022/01/15 03:17:49;;;;;;;4.60;2.30;;;9.00;99.90;;;;;;5092806;28;20056;-81
2022/01/15 03:20:17;;;;;;;8.80;3.08;;;9.00;99.90;;;;;;5076143;28;20106;-81
2022/01/15 03:22:43;;;;;;;4.47;2.33;;;9.10;99.90;;;;;;5092898;28;20059;-80
2022/01/15 03:25:10;;;;;;;4.80;2.28;;;9.00;99.90;;;;;;5092716;28;20040;-81
2022/01/15 03:27:35;;;;;;;5.38;2.50;;;9.00;99.90;;;;;;5092843;28;20122;-81
2022/01/15 03:30:01;;;;;;;9.13;3.38;;;9.10;99.90;;;;;;5077887;28;20139;-81
2022/01/15 03:32:27;;;;;;;4.65;2.67;;;9.10;99.90;;;;;;5079490;28;20131;-81
2022/01/15 03:34:53;;;;;;;5.95;2.25;;;9.10;99.90;;;;;;5097084;28;20458;-81
2022/01/15 03:37:18;;;;;;;7.45;2.42;;;9.10;99.90;;;;;;5079642;28;20395;-81
2022/01/15 03:39:45;;;;;;;5.75;2.78;;;9.10;99.90;;;;;;5095459;28;20056;-80
2022/01/15 03:42:12;;;;;;;6.68;3.20;;;9.10;99.90;;;;;;5096311;28;20052;-81
2022/01/15 03:44:49;;;;;;;5.30;2.83;;;9.10;99.90;;;;;;5095973;28;20483;-81
2022/01/15 03:47:16;;;;;;;5.60;2.70;;;9.10;99.90;;;;;;5096039;28;20134;-80
2022/01/15 03:49:42;;;;;;;5.15;2.55;;;9.10;99.90;;;;;;5096250;28;20051;-80
2022/01/15 03:52:10;;;;;;;5.60;2.70;;;9.20;99.90;;;;;;5095901;28;20044;-80
2022/01/15 03:54:36;;;;;;;4.78;2.63;;;9.10;99.90;;;;;;5096343;28;20120;-81
2022/01/15 03:57:02;;;;;;;4.88;2.70;;;9.10;99.90;;;;;;5095719;28;20467;-81
2022/01/15 03:59:29;;;;;;;6.60;3.30;;;9.10;99.90;;;;;;5095780;28;20383;-81
2022/01/15 04:01:55;;;;;;;4.30;2.08;;;9.10;99.90;;;;;;5078953;28;20049;-81
2022/01/15 04:04:21;;;;;;;5.55;2.88;;;9.10;99.90;;;;;;5095774;28;20044;-81
2022/01/15 04:06:46;;;;;;;5.80;3.03;;;9.10;99.90;;;;;;5095034;28;20479;-81
2022/01/15 04:09:13;;;;;;;8.00;3.80;;;9.10;99.90;;;;;;5095301;28;20065;-81
2022/01/15 04:11:39;;;;;;;8.30;3.22;;;9.10;99.90;;;;;;5095302;28;20090;-81
2022/01/15 04:14:06;;;;;;;6.20;3.20;;;9.20;99.90;;;;;;5095573;28;20549;-81
2022/01/15 04:16:32;;;;;;;6.25;2.72;;;9.20;99.90;;;;;;5095812;28;20040;-81
2022/01/15 04:18:58;;;;;;;5.57;2.63;;;9.20;99.90;;;;;;5095815;28;20101;-81
2022/01/15 04:21:25;;;;;;;5.00;2.72;;;9.20;99.90;;;;;;5079052;28;20052;-81
2022/01/15 04:23:51;;;;;;;6.38;3.10;;;9.20;99.90;;;;;;5095511;28;20044;-81
2022/01/15 04:26:22;;;;;;;4.97;2.85;;;9.20;99.90;;;;;;5095086;28;20051;-80
2022/01/15 04:28:48;;;;;;;5.50;2.45;;;9.10;99.90;;;;;;5095581;28;20044;-81
2022/01/15 04:31:13;;;;;;;6.60;3.33;;;9.10;99.90;;;;;;5095307;28;20041;-80
2022/01/15 04:33:39;;;;;;;10.88;4.20;;;9.10;99.90;;;;;;5095299;28;20180;-81
2022/01/15 04:36:06;;;;;;;6.30;3.40;;;9.20;99.90;;;;;;5095090;28;20051;-80
2022/01/15 04:38:36;;;;;;;5.05;2.90;;;9.20;99.90;;;;;;5095111;28;20088;-80
2022/01/15 04:41:03;;;;;;;19.27;4.55;;;9.20;99.90;;;;;;5077371;28;20048;-80
2022/01/15 04:43:28;;;;;;;7.00;3.13;;;9.20;99.90;;;;;;5095026;28;20132;-80
2022/01/15 04:45:54;;;;;;;5.70;2.88;;;9.00;99.90;;;;;;5095120;28;20531;-81
2022/01/15 04:48:20;;;;;;;7.65;3.70;;;9.10;99.90;;;;;;5094712;28;20052;-81
2022/01/15 04:50:46;;;;;;;7.80;3.55;;;9.10;99.90;;;;;;5077726;28;20416;-80
2022/01/15 04:53:11;;;;;;;6.93;3.15;;;9.00;99.90;;;;;;5128640;27;20090;-80
2022/01/15 04:55:38;;;;;;;5.28;2.85;;;9.00;99.90;;;;;;5094589;28;20097;-81
2022/01/15 04:58:05;;;;;;;7.18;3.00;;;9.00;99.90;;;;;;5077881;28;20040;-80
2022/01/15 05:00:32;;;;;;;7.65;3.10;;;9.00;99.90;;;;;;5094818;28;20090;-81
2022/01/15 05:02:57;;;;;;;4.60;2.55;;;9.00;99.90;;;;;;5094814;28;20056;-81
2022/01/15 05:05:24;;;;;;;5.18;2.70;;;9.10;99.90;;;;;;5094527;28;20135;-80
2022/01/15 05:07:52;;;;;;;5.43;2.63;;;9.10;99.90;;;;;;5077657;28;20479;-81
2022/01/15 05:10:20;;;;;;;4.50;2.65;;;9.10;99.90;;;;;;5094053;28;20055;-80
2022/01/15 05:12:48;;;;;;;4.82;2.70;;;9.10;99.90;;;;;;5094479;28;20047;-81
2022/01/15 05:15:16;;;;;;;5.82;2.60;;;9.10;99.90;;;;;;5095148;28;20052;-81
2022/01/15 05:17:43;;;;;;;5.70;2.80;;;9.00;99.90;;;;;;5077601;28;20040;-81
2022/01/15 05:20:10;;;;;;;5.28;3.00;;;9.00;99.90;;;;;;5077344;28;20052;-81
2022/01/15 05:22:36;;;;;;;4.55;2.38;;;9.00;99.90;;;;;;5094228;28;20048;-80
2022/01/15 05:25:07;;;;;;;6.28;2.90;;;9.00;99.90;;;;;;5094102;28;20075;-79
2022/01/15 05:27:36;;;;;;;6.13;3.10;;;8.90;99.90;;;;;;5094231;28;20130;-80
2022/01/15 05:30:04;;;;;;;5.57;2.67;;;9.00;99.90;;;;;;5094054;28;20110;-80
2022/01/15 05:32:30;;;;;;;6.72;2.95;;;9.00;99.90;;;;;;5093749;28;20043;-81
2022/01/15 05:34:57;;;;;;;5.05;2.70;;;9.00;99.90;;;;;;5093819;28;20443;-80
2022/01/15 05:37:24;;;;;;;6.93;2.72;;;9.00;99.90;;;;;;5093611;28;20054;-81
2022/01/15 05:39:49;;;;;;;4.32;2.25;;;9.00;99.90;;;;;;5093092;28;20058;-80
2022/01/15 05:42:16;;;;;;;5.05;2.53;;;8.90;99.90;;;;;;5093620;28;20048;-80
2022/01/15 05:44:41;;;;;;;9.68;3.22;;;9.00;99.90;;;;;;5093576;28;20131;-81
2022/01/15 05:47:08;;;;;;;6.28;2.55;;;9.10;99.90;;;;;;5093618;28;20143;-81
2022/01/15 05:49:34;;;;;;;6.45;3.10;;;9.10;99.90;;;;;;5093264;28;20043;-81
2022/01/15 05:51:59;;;;;;;5.38;2.38;;;9.10;99.90;;;;;;5093188;28;20098;-80
2022/01/15 05:54:25;;;;;;;5.28;2.83;;;9.10;99.90;;;;;;5093066;28;20058;-80
2022/01/15 05:56:51;;;;;;;6.60;3.15;;;9.00;99.90;;;;;;5093343;28;20074;-81
2022/01/15 05:59:17;;;;;;;5.28;2.72;;;9.00;99.90;;;;;;5093283;28;20059;-81
2022/01/15 06:01:43;;;;;;;5.95;2.58;;;9.00;99.90;;;;;;5076568;28;20384;-81
2022/01/15 06:04:08;;;;;;;5.25;3.20;;;9.00;99.90;;;;;;5093409;28;20044;-81
2022/01/15 06:06:34;;;;;;;5.03;2.42;;;8.90;99.90;;;;;;5093218;28;20123;-81
2022/01/15 06:09:00;;;;;;;7.25;3.13;;;8.90;99.90;;;;;;5092915;28;20079;-80
2022/01/15 06:11:27;;;;;;;6.25;3.00;;;8.80;99.90;;;;;;5075895;28;20555;-81
2022/01/15 06:13:52;;;;;;;6.45;3.25;;;8.80;99.90;;;;;;5076697;28;20047;-81
2022/01/15 06:16:19;;;;;;;5.80;2.88;;;8.70;99.90;;;;;;5093134;28;20059;-81
2022/01/15 06:18:44;;;;;;;7.88;3.47;;;8.70;99.90;;;;;;5076075;28;20051;-81
2022/01/15 06:21:10;;;;;;;6.90;3.65;;;8.70;99.90;;;;;;5127257;27;20383;-80
2022/01/15 06:23:36;;;;;;;5.28;2.95;;;8.70;99.90;;;;;;5092968;28;20378;-81
2022/01/15 06:26:01;;;;;;;7.13;3.40;;;8.80;99.90;;;;;;5093377;28;20113;-81
2022/01/15 06:28:27;;;;;;;6.50;3.35;;;8.80;99.90;;;;;;5093536;28;20052;-81
2022/01/15 06:30:53;;;;;;;4.80;2.65;;;8.80;99.90;;;;;;5092776;28;20044;-81
2022/01/15 06:33:19;;;;;;;5.60;2.90;;;8.90;99.90;;;;;;5076106;28;20127;-80
2022/01/15 06:35:44;;;;;;;9.23;3.25;;;8.90;99.90;;;;;;5092890;28;20118;-80
2022/01/15 06:38:10;;;;;;;6.45;3.25;;;8.90;99.90;;;;;;5093136;28;20479;-81
2022/01/15 06:40:36;;;;;;;6.15;3.58;;;8.90;99.90;;;;;;5126473;28;20044;-81
2022/01/15 06:43:02;;;;;;;7.18;4.00;;;8.90;99.90;;;;;;5093271;28;20076;-80
2022/01/15 06:45:30;;;;;;;7.28;4.03;;;8.90;99.90;;;;;;5075910;28;20060;-81
2022/01/15 06:47:56;;;;;;;6.15;3.13;;;8.90;99.90;;;;;;5075770;28;20422;-80
2022/01/15 06:50:24;;;;;;;8.18;3.85;;;8.80;99.90;;;;;;5092392;28;20093;-81
2022/01/15 06:52:50;;;;;;;7.10;3.65;;;8.80;99.90;;;;;;5092986;28;20052;-81
2022/01/15 06:55:16;;;;;;;8.43;4.15;;;8.80;99.90;;;;;;5092387;28;20407;-81
2022/01/15 06:57:42;;;;;;;9.48;3.55;;;8.80;99.90;;;;;;5075989;28;20060;-80
2022/01/15 07:00:10;;;;;;;9.32;4.18;;;8.80;99.90;;;;;;5092892;28;20079;-81
2022/01/15 07:02:36;;;;;;;7.45;3.50;;;8.70;99.90;;;;;;5092431;28;20414;-81
2022/01/15 07:05:03;;;;;;;5.70;2.90;;;8.70;99.90;;;;;;5078135;28;20079;-81
2022/01/15 07:07:29;;;;;;;5.43;2.72;;;8.60;99.90;;;;;;5096400;28;20075;-81
2022/01/15 07:09:54;;;;;;;5.70;2.80;;;8.60;99.90;;;;;;5079159;28;20095;-80
2022/01/15 07:12:20;;;;;;;5.78;3.00;;;8.50;99.90;;;;;;5130766;27;20079;-80
2022/01/15 07:14:46;;;;;;;5.78;3.00;;;8.50;99.90;;;;;;5079563;28;20040;-81
2022/01/15 07:17:11;;;;;;;7.43;3.25;;;8.60;99.90;;;;;;5096228;28;20048;-81
2022/01/15 07:19:37;;;;;;;7.32;3.45;;;8.50;99.90;;;;;;5096309;28;20048;-81
2022/01/15 07:22:05;;;;;;;7.03;2.95;;;8.60;99.90;;;;;;5096388;28;20047;-81
2022/01/15 07:24:30;;;;;;;6.32;3.13;;;8.50;99.90;;;;;;5096186;28;20046;-80
2022/01/15 07:26:56;;;;;;;6.50;3.00;;;8.60;99.90;;;;;;5096039;28;20135;-80
2022/01/15 07:29:24;;;;;;;6.35;2.88;;;8.60;99.90;;;;;;5096168;28;20429;-81
2022/01/15 07:31:51;;;;;;;5.53;2.78;;;8.50;99.90;;;;;;5096336;28;20055;-81
2022/01/15 07:34:17;;;;;;;7.55;3.60;;;8.60;99.90;;;;;;5096378;28;20040;-81
2022/01/15 07:36:46;;;;;;;7.30;3.17;;;8.60;99.90;;;;;;5096453;28;20399;-81
2022/01/15 07:39:12;;;;;;;5.82;2.97;;;8.70;99.90;;;;;;5096285;28;20048;-81
2022/01/15 07:41:37;;;;;;;5.78;2.60;;;8.70;99.90;;;;;;5095501;28;20074;-81
2022/01/15 07:44:04;;;;;;;6.00;2.78;;;8.70;99.90;;;;;;5079397;28;20044;-81
2022/01/15 07:46:30;;;;;;;5.68;2.80;;;8.50;99.90;;;;;;5078778;28;20048;-81
2022/01/15 07:48:56;;;;;;;6.68;2.85;;;8.50;99.90;;;;;;5078624;28;20101;-81
2022/01/15 07:51:21;;;;;;;5.50;2.53;;;8.50;99.90;;;;;;5129617;27;20203;-81
2022/01/15 07:53:47;;;;;;;5.43;2.78;;;8.50;99.90;;;;;;5095972;28;20048;-81
2022/01/15 07:56:13;;;;;;;5.28;2.53;;;8.50;99.90;;;;;;5095546;28;20056;-81
2022/01/15 07:58:38;;;;;;;4.95;2.53;;;8.50;99.90;;;;;;5095452;28;20130;-81
2022/01/15 08:01:05;;;;;;;5.32;2.65;;;8.40;99.90;;;;;;5078088;28;20055;-81
2022/01/15 08:03:31;;;;;;;4.88;2.60;;;8.40;99.90;;;;;;5098485;28;20131;-81
2022/01/15 08:05:57;;;;;;;7.07;3.03;;;8.40;99.90;;;;;;5095323;28;20101;-81
2022/01/15 08:08:23;;;;;;;5.10;2.72;;;8.50;99.90;;;;;;5078374;28;20417;-81
2022/01/15 08:10:48;;;;;;;7.53;3.38;;;8.40;99.90;;;;;;5078102;28;20051;-81
2022/01/15 08:13:14;;;;;;;5.70;2.92;;;8.40;99.90;;;;;;5078658;28;20047;-81
2022/01/15 08:15:40;;;;;;;6.40;2.97;;;8.30;99.90;;;;;;5095550;28;20071;-81
2022/01/15 08:18:05;;;;;;;7.18;3.03;;;8.40;99.90;;;;;;5095104;28;20105;-82
2022/01/15 08:20:31;;;;;;;5.75;2.72;;;8.50;99.90;;;;;;5096241;28;20052;-80
2022/01/15 08:22:57;;;;;;;7.72;3.20;;;8.50;99.90;;;;;;5095954;28;20055;-81
2022/01/15 08:25:24;;;;;;;7.22;3.10;;;8.50;99.90;;;;;;5095075;28;20063;-81
2022/01/15 08:27:50;;;;;;;7.60;3.28;;;8.60;99.90;;;;;;5094864;28;20394;-81
2022/01/15 08:30:16;;;;;;;5.05;2.83;;;8.70;99.90;;;;;;5094989;28;20048;-81
2022/01/15 08:32:42;;;;;;;8.13;3.53;;;8.60;99.90;;;;;;5129599;27;20044;-81
2022/01/15 08:35:09;;;;;;;7.85;3.30;;;8.60;99.90;;;;;;5094945;28;20091;-81
2022/01/15 08:37:37;;;;;;;7.18;3.15;;;8.40;99.90;;;;;;5077890;28;20047;-81
2022/01/15 08:40:07;;;;;;;6.38;3.38;;;8.40;99.90;;;;;;5094069;28;20563;-81
2022/01/15 08:42:33;;;;;;;7.22;3.47;;;8.20;99.90;;;;;;5094752;28;20517;-82
2022/01/15 08:44:59;;;;;;;6.93;2.97;;;8.30;99.90;;;;;;5077965;28;20051;-76
2022/01/15 08:47:25;;;;;;;6.43;3.28;;;8.30;99.90;;;;;;5077597;28;20102;-74
2022/01/15 08:49:52;;;;;;;7.35;3.25;;;8.30;99.90;;;;;;5095139;28;20396;-75
2022/01/15 08:52:17;;;;;;;5.93;2.70;;;8.30;99.90;;;;;;5095010;28;20052;-75
2022/01/15 08:54:43;;;;;;;4.65;2.40;;;8.20;99.90;;;;;;5096351;28;20060;-76
2022/01/15 08:57:09;;;;;;;4.85;1.90;;;7.90;99.90;;;;;;5099587;28;20055;-75
2022/01/15 08:59:34;;;;;;;4.05;1.42;;;7.60;99.90;;;;;;5100658;28;20399;-76
2022/01/15 09:02:00;;;;;;;4.60;1.65;;;7.60;99.90;;;;;;5094384;28;20386;-75
2022/01/15 09:04:26;;;;;;;3.22;1.45;;;7.60;99.90;;;;;;5077538;28;20083;-75
2022/01/15 09:06:52;;;;;;;3.90;1.23;;;7.70;99.90;;;;;;5094502;28;20075;-76
2022/01/15 09:09:17;;;;;;;3.30;1.30;;;7.70;99.90;;;;;;5094133;28;20548;-77
2022/01/15 09:11:44;;;;;;;3.42;1.30;;;7.70;99.90;;;;;;5093692;28;20036;-75
2022/01/15 09:14:11;;;;;;;2.72;1.40;;;7.80;99.90;;;;;;5094119;28;20047;-75
2022/01/15 09:16:38;;;;;;;4.88;1.50;;;8.00;99.90;;;;;;5093949;28;20105;-75
2022/01/15 09:19:03;;;;;;;4.88;1.70;;;7.90;99.90;;;;;;5094157;28;20108;-74
2022/01/15 09:21:29;;;;;;;5.25;1.90;;;7.90;99.90;;;;;;5077700;28;20048;-75
2022/01/15 09:23:55;;;;;;;5.63;2.53;;;7.90;99.90;;;;;;5093876;28;20054;-75
2022/01/15 09:26:25;;;;;;;4.60;2.22;;;7.90;99.90;;;;;;5127898;27;20112;-75
2022/01/15 09:31:36;;;;;;;7.82;2.85;;;7.70;99.90;;;;;;5093873;28;20510;-75
2022/01/15 09:34:02;;;;;;;8.95;3.90;;;7.70;99.90;;;;;;5093590;28;20085;-75
2022/01/15 09:36:28;;;;;;;7.20;3.33;;;7.70;99.90;;;;;;5095187;28;20047;-76
2022/01/15 09:38:54;;;;;;;9.00;4.30;;;7.70;99.90;;;;;;5096065;28;20368;-74
2022/01/15 09:41:20;;;;;;;12.52;5.13;;;7.30;99.90;;;;;;5076473;28;20520;-76
2022/01/15 09:43:47;;;;;;;12.93;5.63;;;7.40;99.90;;;;;;5093269;28;20052;-76
2022/01/15 09:46:13;;;;;;;12.10;5.57;;;7.50;99.90;;;;;;5093507;28;20063;-76
2022/01/15 09:48:42;;;;;;;13.98;5.68;;;7.50;99.90;;;;;;5093588;28;20076;-76
2022/01/15 09:51:07;;;;;;;13.23;5.88;;;7.40;99.90;;;;;;5094397;28;20122;-76
2022/01/15 09:53:34;;;;;;;12.40;6.13;;;7.30;99.90;;;;;;5093243;28;20529;-76
2022/01/15 09:56:00;;;;;;;12.68;5.85;;;7.30;99.90;;;;;;5093338;28;20052;-77
2022/01/15 09:58:26;;;;;;;14.77;6.55;;;7.30;99.90;;;;;;5093194;28;20189;-73
2022/01/15 10:00:52;;;;;;;12.10;5.45;;;7.30;99.90;;;;;;5093169;28;20502;-76
2022/01/15 10:03:19;;;;;;;15.35;6.60;;;7.20;99.90;;;;;;5093496;28;20044;-76
2022/01/15 10:05:45;;;;;;;14.20;6.25;;;7.20;99.90;;;;;;5076587;28;20131;-76
2022/01/15 10:08:13;;;;;;;18.98;8.18;;;7.10;99.90;;;;;;5093044;28;20094;-76
2022/01/15 10:10:47;;;;;;;17.30;8.45;;;7.10;99.90;;;;;;5092711;28;20048;-76
2022/01/15 10:13:14;;;;;;;18.88;8.35;;;7.40;99.90;;;;;;5094571;28;20062;-76
2022/01/15 10:15:42;;;;;;;17.25;7.80;;;7.40;99.90;;;;;;5093499;28;20126;-76
2022/01/15 10:18:30;;;;;;;18.58;8.75;;;7.30;99.90;;;;;;5092842;28;20040;-76
2022/01/15 10:21:10;;;;;;;18.08;7.90;;;7.40;99.90;;;;;;5093883;28;20044;-76
2022/01/15 10:23:49;;;;;;;19.92;9.00;;;7.50;99.90;;;;;;5093364;28;20052;-76
2022/01/15 10:26:17;;;;;;;19.65;8.02;;;7.60;99.90;;;;;;5093001;28;20317;-76
2022/01/15 10:28:56;;;;;;;19.65;8.60;;;7.50;99.90;;;;;;5092578;28;20395;-76
2022/01/15 10:31:32;;;;;;;16.17;7.45;;;7.60;99.90;;;;;;5075929;28;20056;-76
2022/01/15 10:34:00;;;;;;;15.85;7.30;;;7.40;99.90;;;;;;5092915;28;20112;-76
2022/01/15 10:36:34;;;;;;;17.60;7.35;;;7.20;99.90;;;;;;5093409;28;20395;-76
2022/01/15 10:39:20;;;;;;;15.00;6.07;;;7.30;99.90;;;;;;5076319;28;20487;-76
2022/01/15 10:41:48;;;;;;;15.00;6.13;;;7.20;99.90;;;;;;5096831;28;20047;-76
2022/01/15 10:44:36;;;;;;;15.63;6.75;;;7.20;99.90;;;;;;5080017;28;20461;-76
2022/01/15 10:47:07;;;;;;;17.25;7.78;;;7.30;99.90;;;;;;5080042;28;20127;-76
2022/01/15 10:49:33;;;;;;;16.90;7.15;;;7.30;99.90;;;;;;5096651;28;20043;-76
2022/01/15 10:52:17;;;;;;;16.40;7.55;;;7.30;99.90;;;;;;5096760;28;20048;-76
2022/01/15 10:54:57;;;;;;;16.98;7.55;;;7.40;99.90;;;;;;5096107;28;20056;-77
2022/01/15 10:57:35;;;;;;;15.60;6.88;;;7.30;99.90;;;;;;5096908;28;20052;-76
2022/01/15 11:00:14;;;;;;;16.00;7.07;;;7.20;99.90;;;;;;5096824;28;20056;-76
2022/01/15 11:02:42;;;;;;;17.60;6.80;;;7.10;99.90;;;;;;5096812;28;20516;-76
2022/01/15 11:05:30;;;;;;;15.45;6.95;;;7.10;99.90;;;;;;5096483;28;20050;-76
2022/01/15 11:08:13;;;;;;;17.70;7.40;;;7.10;99.90;;;;;;5096290;28;20048;-77
2022/01/15 11:10:51;;;;;;;14.60;7.10;;;7.20;99.90;;;;;;5079348;28;20075;-76
2022/01/15 11:13:39;;;;;;;17.55;7.65;;;7.20;99.90;;;;;;5096872;28;20052;-76
2022/01/15 11:16:31;;;;;;;17.05;7.32;;;7.30;99.90;;;;;;5097846;28;20052;-76
2022/01/15 11:18:58;;;;;;;14.85;7.00;;;7.20;99.90;;;;;;5094359;28;20491;-76
2022/01/15 11:21:29;;;;;;;16.85;8.10;;;7.10;99.90;;;;;;5062915;28;20059;-77
2022/01/15 11:23:58;;;;;;;16.25;7.90;;;7.20;99.90;;;;;;5096336;28;20056;-76
2022/01/15 11:26:28;;;;;;;18.58;8.13;;;7.30;99.90;;;;;;5096389;28;20059;-74
2022/01/15 11:28:55;;;;;;;18.77;8.20;;;7.40;99.90;;;;;;5098674;28;20047;-77
2022/01/15 11:31:31;;;;;;;21.15;9.48;;;7.30;99.90;;;;;;5099912;28;20055;-77
2022/01/15 11:33:59;;;;;;;;;;;7.30;99.90;;;;;;5096714;28;20040;-77
2022/01/15 11:36:42;;;;;;;21.77;9.25;;;7.40;99.90;;;;;;5096086;28;19976;-76
2022/01/15 11:39:12;;;;;;;25.60;10.80;;;7.50;99.90;;;;;;5095916;28;20052;-77
2022/01/15 11:41:43;;;;;;;20.77;9.57;;;7.60;99.90;;;;;;5095992;28;20043;-77
2022/01/15 11:44:14;;;;;;;22.90;10.45;;;7.50;99.90;;;;;;5097716;28;20054;-78
2022/01/15 11:46:42;;;;;;;23.17;10.23;;;7.40;99.90;;;;;;5096241;28;20044;-77
2022/01/15 11:49:23;;;;;;;25.17;11.05;;;7.40;99.90;;;;;;5095672;28;20044;-78
2022/01/15 11:51:53;;;;;;;30.42;12.27;;;7.60;99.90;;;;;;5095369;28;20051;-78
2022/01/15 11:54:19;;;;;;;21.27;10.32;;;7.60;99.90;;;;;;5063286;28;20505;-78
2022/01/15 11:56:46;;;;;;;23.75;10.65;;;7.70;99.90;;;;;;5078896;28;20059;-79
2022/01/15 11:59:30;;;;;;;20.08;10.27;;;7.60;99.90;;;;;;5078879;28;20048;-78
2022/01/15 12:02:02;;;;;;;21.45;9.65;;;7.50;99.90;;;;;;5129830;27;20048;-76
2022/01/15 12:04:33;;;;;;;17.40;9.38;;;7.30;99.90;;;;;;5095993;28;20040;-77
2022/01/15 12:07:05;;;;;;;18.27;9.30;;;7.20;99.90;;;;;;5078790;28;20087;-77
2022/01/15 12:09:36;;;;;;;22.45;10.80;;;7.10;99.90;;;;;;5095099;28;20048;-76
2022/01/15 12:15:01;;;;;;;18.52;9.63;;;7.30;99.90;;;;;;5095382;28;20087;-76
2022/01/15 12:17:31;;;;;;;20.35;10.57;;;7.10;99.90;;;;;;5096731;28;20044;-74
2022/01/15 12:19:58;;;;;;;21.42;10.30;;;7.00;99.90;;;;;;5099591;28;20127;-75
2022/01/15 12:22:46;;;;;;;21.40;11.20;;;7.20;99.90;;;;;;5078258;28;20137;-77
2022/01/15 12:25:17;;;;;;;24.25;12.23;;;7.40;99.90;;;;;;5095635;28;20050;-77
2022/01/15 12:27:56;;;;;;;22.90;11.13;;;7.50;99.90;;;;;;5095005;28;20456;-76
2022/01/15 12:30:28;;;;;;;19.65;10.65;;;7.60;99.90;;;;;;5094904;28;20055;-75
2022/01/15 12:32:56;;;;;;;20.42;11.00;;;7.60;99.90;;;;;;5094924;28;20489;-76
2022/01/15 12:35:24;;;;;;;22.63;11.55;;;7.60;99.90;;;;;;5094789;28;20052;-76
2022/01/15 12:38:13;;;;;;;23.50;11.90;;;7.50;99.90;;;;;;5094610;28;20403;-76
2022/01/15 12:40:47;;;;;;;22.63;11.70;;;7.20;99.90;;;;;;5094532;28;20052;-76
2022/01/15 12:43:35;;;;;;;26.08;13.20;;;7.20;99.90;;;;;;5077962;28;20044;-75
2022/01/15 12:46:03;;;;;;;25.70;12.27;;;7.20;99.90;;;;;;5094732;28;20048;-75
2022/01/15 12:48:31;;;;;;;25.83;13.32;;;7.10;99.90;;;;;;5094655;28;20098;-75
2022/01/15 12:50:59;;;;;;;21.67;11.13;;;7.10;99.90;;;;;;5094569;28;20044;-81
2022/01/15 12:53:30;;;;;;;28.88;14.35;;;6.90;99.90;;;;;;5094581;28;20134;-75
2022/01/15 12:55:57;;;;;;;26.55;13.38;;;6.90;99.90;;;;;;5094092;28;20048;-76
2022/01/15 12:58:26;;;;;;;26.50;13.68;;;7.00;99.90;;;;;;5078270;28;20048;-76
2022/01/15 13:00:52;;;;;;;25.08;13.27;;;7.20;99.90;;;;;;5094343;28;20491;-76
2022/01/15 13:03:20;;;;;;;29.05;13.00;;;7.20;99.90;;;;;;5093417;28;20059;-76
2022/01/15 13:05:52;;;;;;;33.78;15.50;;;7.20;99.90;;;;;;5094389;28;20058;-75
2022/01/15 13:08:24;;;;;;;32.28;14.55;;;7.00;99.90;;;;;;5094297;28;20510;-76
2022/01/15 13:10:54;;;;;;;31.17;14.30;;;7.00;99.90;;;;;;5093977;28;20052;-74
2022/01/15 13:13:24;;;;;;;26.88;12.90;;;6.80;99.90;;;;;;5094319;28;20138;-75
2022/01/15 13:15:59;;;;;;;32.75;13.60;;;6.70;99.90;;;;;;5094249;28;20062;-80
2022/01/15 13:18:28;;;;;;;31.80;13.85;;;7.10;99.90;;;;;;5094109;28;20052;-81
2022/01/15 13:20:55;;;;;;;32.63;15.57;;;7.50;99.90;;;;;;5094377;28;20051;-81
2022/01/15 13:23:24;;;;;;;30.17;14.70;;;7.70;99.90;;;;;;5093934;28;20043;-75
2022/01/15 13:25:51;;;;;;;32.10;15.15;;;7.40;99.90;;;;;;5128143;27;20105;-75